createdAt,value
2016-10-15T00:00:47.250Z,730.62
2016-10-15T00:01:47.245Z,730.65
2016-10-15T00:02:47.234Z,730.62
2016-10-15T00:03:47.215Z,730.62
2016-10-15T00:04:47.210Z,730.57
2016-10-15T00:05:47.199Z,730.56
2016-10-15T00:06:47.187Z,730.46
2016-10-15T00:07:47.168Z,730.32
2016-10-15T00:08:47.163Z,730.5
2016-10-15T00:09:47.144Z,730.24
2016-10-15T00:10:47.131Z,730.27
2016-10-15T00:11:47.127Z,730.29
2016-10-15T00:12:47.115Z,730.41
2016-10-15T00:13:47.104Z,730.46
2016-10-15T00:14:47.083Z,730.43
2016-10-15T00:15:47.073Z,730.32
2016-10-15T00:16:47.060Z,730.42
2016-10-15T00:17:47.049Z,730.51
2016-10-15T00:18:47.036Z,730.54
2016-10-15T00:19:47.033Z,730.64
2016-10-15T00:20:47.014Z,730.62
2016-10-15T00:21:47.009Z,730.68
2016-10-15T00:22:46.990Z,730.79
2016-10-15T00:23:46.986Z,730.89
2016-10-15T00:24:46.968Z,730.91
2016-10-15T00:25:46.962Z,730.84
2016-10-15T00:26:46.945Z,730.87
2016-10-15T00:27:46.940Z,730.85
2016-10-15T00:28:46.929Z,730.86
2016-10-15T00:29:46.910Z,730.96
2016-10-15T00:30:46.906Z,730.94
2016-10-15T00:31:46.895Z,730.87
2016-10-15T00:32:46.883Z,730.94
2016-10-15T00:33:46.871Z,730.95
2016-10-15T00:34:46.860Z,730.91
2016-10-15T00:35:46.848Z,730.92
2016-10-15T00:36:46.829Z,730.94
2016-10-15T00:37:46.816Z,730.9
2016-10-15T00:38:46.804Z,730.79
2016-10-15T00:39:46.792Z,730.84
2016-10-15T00:40:46.780Z,730.87
2016-10-15T00:41:46.767Z,730.9
2016-10-15T00:42:46.762Z,730.91
2016-10-15T00:43:46.749Z,730.91
2016-10-15T00:44:46.737Z,730.95
2016-10-15T00:45:46.725Z,730.96
2016-10-15T00:46:46.707Z,730.98
2016-10-15T00:47:46.694Z,730.92
2016-10-15T00:48:46.689Z,730.87
2016-10-15T00:49:46.671Z,730.78
2016-10-15T00:50:46.665Z,730.78
2016-10-15T00:51:46.647Z,730.81
2016-10-15T00:52:46.635Z,730.73
2016-10-15T00:53:46.631Z,730.78
2016-10-15T00:54:46.619Z,730.8
2016-10-15T00:55:46.608Z,730.88
2016-10-15T00:56:46.740Z,730.94
2016-10-15T00:57:46.586Z,731
2016-10-15T00:58:46.574Z,730.98
2016-10-15T00:59:46.562Z,730.98
2016-10-15T01:00:46.544Z,730.94
2016-10-15T01:01:46.539Z,730.95
2016-10-15T01:02:46.522Z,730.9
2016-10-15T01:03:46.510Z,730.93
2016-10-15T01:04:46.499Z,730.96
2016-10-15T01:05:46.488Z,730.99
2016-10-15T01:06:46.482Z,730.99
2016-10-15T01:07:46.465Z,731.02
2016-10-15T01:08:46.453Z,731.07
2016-10-15T01:09:46.441Z,731.12
2016-10-15T01:10:46.430Z,731.17
2016-10-15T01:11:46.418Z,731.19
2016-10-15T01:12:46.414Z,731.22
2016-10-15T01:13:46.395Z,731.26
2016-10-15T01:14:46.392Z,731.26
2016-10-15T01:15:46.380Z,731.28
2016-10-15T01:16:46.362Z,731.26
2016-10-15T01:17:46.357Z,731.2
2016-10-15T01:18:46.346Z,731.14
2016-10-15T01:19:46.334Z,731.04
2016-10-15T01:20:46.321Z,731.02
2016-10-15T01:21:46.310Z,731.09
2016-10-15T01:22:46.298Z,731.1
2016-10-15T01:23:46.279Z,731.04
2016-10-15T01:24:46.273Z,730.98
2016-10-15T01:25:46.261Z,731.02
2016-10-15T01:26:46.243Z,731.07
2016-10-15T01:27:46.236Z,731.07
2016-10-15T01:28:46.224Z,731
2016-10-15T01:29:46.205Z,731.02
2016-10-15T01:30:46.200Z,731.07
2016-10-15T01:31:46.180Z,731.16
2016-10-15T01:32:46.175Z,731.29
2016-10-15T01:33:46.155Z,731.34
2016-10-15T01:34:46.150Z,731.39
2016-10-15T01:35:46.138Z,731.4
2016-10-15T01:36:46.119Z,731.41
2016-10-15T01:37:46.113Z,731.44
2016-10-15T01:38:46.094Z,731.51
2016-10-15T01:39:46.081Z,731.57
2016-10-15T01:40:46.069Z,731.63
2016-10-15T01:41:46.063Z,731.48
2016-10-15T01:42:46.044Z,731.45
2016-10-15T01:43:46.031Z,731.39
2016-10-15T01:44:46.019Z,731.29
2016-10-15T01:45:46.006Z,731.38
2016-10-15T01:46:46.002Z,731.39
2016-10-15T01:47:45.983Z,731.3
2016-10-15T01:48:45.978Z,731.37
2016-10-15T01:49:45.958Z,731.32
2016-10-15T01:50:45.947Z,731.32
2016-10-15T01:51:45.936Z,731.33
2016-10-15T01:52:45.931Z,731.26
2016-10-15T01:53:45.911Z,731.3
2016-10-15T01:54:45.899Z,731.19
2016-10-15T01:55:45.886Z,731.23
2016-10-15T01:56:45.881Z,731.29
2016-10-15T01:57:45.873Z,731.33
2016-10-15T01:58:45.851Z,731.38
2016-10-15T01:59:45.845Z,731.33
2016-10-15T02:00:45.832Z,731.35
2016-10-15T02:01:45.820Z,731.38
2016-10-15T02:02:45.802Z,731.39
2016-10-15T02:03:45.796Z,731.46
2016-10-15T02:04:45.777Z,731.52
2016-10-15T02:05:45.765Z,731.44
2016-10-15T02:06:45.753Z,731.41
2016-10-15T02:07:45.747Z,731.48
2016-10-15T02:08:45.735Z,731.49
2016-10-15T02:09:45.723Z,731.56
2016-10-15T02:10:45.711Z,731.6
2016-10-15T02:11:45.698Z,731.57
2016-10-15T02:12:45.686Z,731.66
2016-10-15T02:13:45.674Z,731.72
2016-10-15T02:14:45.654Z,731.73
2016-10-15T02:15:45.642Z,731.72
2016-10-15T02:16:45.637Z,731.71
2016-10-15T02:17:45.618Z,731.7
2016-10-15T02:18:45.613Z,731.86
2016-10-15T02:19:45.593Z,731.9
2016-10-15T02:20:45.588Z,731.77
2016-10-15T02:21:45.569Z,731.69
2016-10-15T02:22:45.563Z,731.6
2016-10-15T02:23:45.551Z,731.61
2016-10-15T02:24:45.532Z,731.53
2016-10-15T02:25:45.526Z,731.49
2016-10-15T02:26:45.513Z,731.57
2016-10-15T02:27:45.501Z,731.63
2016-10-15T02:28:45.489Z,731.7
2016-10-15T02:29:45.471Z,731.66
2016-10-15T02:30:45.463Z,731.59
2016-10-15T02:31:45.451Z,731.66
2016-10-15T02:32:45.439Z,731.63
2016-10-15T02:33:45.419Z,731.62
2016-10-15T02:34:45.414Z,731.64
2016-10-15T02:35:45.402Z,731.7
2016-10-15T02:36:45.381Z,731.7
2016-10-15T02:37:45.377Z,731.59
2016-10-15T02:38:45.359Z,731.65
2016-10-15T02:39:45.353Z,731.64
2016-10-15T02:40:45.340Z,731.6
2016-10-15T02:41:45.328Z,731.66
2016-10-15T02:42:45.316Z,731.6
2016-10-15T02:43:45.305Z,731.66
2016-10-15T02:44:45.292Z,731.58
2016-10-15T02:45:45.273Z,731.67
2016-10-15T02:46:45.269Z,731.55
2016-10-15T02:47:45.255Z,731.62
2016-10-15T02:48:45.237Z,731.61
2016-10-15T02:49:45.231Z,731.65
2016-10-15T02:50:45.219Z,731.56
2016-10-15T02:51:45.206Z,731.49
2016-10-15T02:52:45.194Z,731.79
2016-10-15T02:53:45.176Z,731.63
2016-10-15T02:54:45.170Z,731.73
2016-10-15T02:55:45.156Z,731.72
2016-10-15T02:56:45.144Z,731.7
2016-10-15T02:57:45.126Z,731.68
2016-10-15T02:58:45.118Z,731.51
2016-10-15T02:59:45.100Z,731.5
2016-10-15T03:00:45.087Z,731.7
2016-10-15T03:01:45.075Z,731.7
2016-10-15T03:02:45.069Z,731.81
2016-10-15T03:03:45.049Z,731.68
2016-10-15T03:04:45.044Z,731.62
2016-10-15T03:05:45.024Z,731.52
2016-10-15T03:06:45.018Z,731.56
2016-10-15T03:07:45.005Z,731.84
2016-10-15T03:08:44.986Z,731.82
2016-10-15T03:09:44.979Z,731.6
2016-10-15T03:10:44.966Z,731.72
2016-10-15T03:11:44.954Z,731.78
2016-10-15T03:12:44.935Z,731.74
2016-10-15T03:13:44.921Z,731.7
2016-10-15T03:14:44.910Z,731.7
2016-10-15T03:15:44.897Z,731.71
2016-10-15T03:16:44.891Z,731.73
2016-10-15T03:17:44.871Z,731.73
2016-10-15T03:18:44.859Z,731.75
2016-10-15T03:19:44.847Z,731.76
2016-10-15T03:20:44.833Z,731.79
2016-10-15T03:21:44.822Z,731.76
2016-10-15T03:22:44.809Z,731.8
2016-10-15T03:23:44.797Z,731.84
2016-10-15T03:24:44.786Z,731.78
2016-10-15T03:25:44.779Z,731.73
2016-10-15T03:26:44.767Z,731.72
2016-10-15T03:27:44.748Z,731.78
2016-10-15T03:28:44.735Z,731.75
2016-10-15T03:29:44.729Z,731.78
2016-10-15T03:30:44.717Z,731.8
2016-10-15T03:31:44.696Z,731.81
2016-10-15T03:32:44.691Z,731.82
2016-10-15T03:33:44.679Z,731.85
2016-10-15T03:34:44.666Z,731.88
2016-10-15T03:35:44.653Z,731.9
2016-10-15T03:36:44.634Z,731.85
2016-10-15T03:37:44.629Z,731.91
2016-10-15T03:38:44.616Z,731.83
2016-10-15T03:39:44.604Z,731.86
2016-10-15T03:40:44.586Z,731.96
2016-10-15T03:41:44.579Z,731.96
2016-10-15T03:42:44.559Z,731.89
2016-10-15T03:43:44.554Z,731.91
2016-10-15T03:44:44.542Z,731.89
2016-10-15T03:45:44.530Z,731.87
2016-10-15T03:46:44.516Z,731.95
2016-10-15T03:47:44.504Z,731.93
2016-10-15T03:48:44.492Z,731.94
2016-10-15T03:49:44.472Z,731.94
2016-10-15T03:50:44.461Z,731.9
2016-10-15T03:51:44.455Z,731.84
2016-10-15T03:52:44.443Z,731.83
2016-10-15T03:53:44.424Z,731.93
2016-10-15T03:54:44.411Z,731.98
2016-10-15T03:55:44.398Z,731.93
2016-10-15T03:56:44.386Z,731.87
2016-10-15T03:57:44.373Z,731.93
2016-10-15T03:58:44.360Z,731.85
2016-10-15T03:59:44.349Z,731.91
2016-10-15T04:00:44.334Z,731.83
2016-10-15T04:01:44.323Z,731.86
2016-10-15T04:02:44.309Z,731.83
2016-10-15T04:03:44.304Z,731.97
2016-10-15T04:04:44.290Z,732
2016-10-15T04:05:44.278Z,731.88
2016-10-15T04:06:44.265Z,731.94
2016-10-15T04:07:44.252Z,731.94
2016-10-15T04:08:44.233Z,731.96
2016-10-15T04:09:44.219Z,731.98
2016-10-15T04:10:44.214Z,731.77
2016-10-15T04:11:44.200Z,731.87
2016-10-15T04:12:44.188Z,731.93
2016-10-15T04:13:44.175Z,731.94
2016-10-15T04:14:44.163Z,731.9
2016-10-15T04:15:44.149Z,731.95
2016-10-15T04:16:44.136Z,731.9
2016-10-15T04:17:44.116Z,731.89
2016-10-15T04:18:44.111Z,731.87
2016-10-15T04:19:44.097Z,731.95
2016-10-15T04:20:44.078Z,731.89
2016-10-15T04:21:44.072Z,732.06
2016-10-15T04:22:44.052Z,731.91
2016-10-15T04:23:44.038Z,731.93
2016-10-15T04:24:44.026Z,731.89
2016-10-15T04:25:44.012Z,731.95
2016-10-15T04:26:43.998Z,731.89
2016-10-15T04:27:43.992Z,731.96
2016-10-15T04:28:43.972Z,731.9
2016-10-15T04:29:43.959Z,731.93
2016-10-15T04:30:43.945Z,732.03
2016-10-15T04:31:43.940Z,731.92
2016-10-15T04:32:43.919Z,731.94
2016-10-15T04:33:43.906Z,732.06
2016-10-15T04:34:43.900Z,732.04
2016-10-15T04:35:43.887Z,732.08
2016-10-15T04:36:43.874Z,732.12
2016-10-15T04:37:43.854Z,732.1
2016-10-15T04:38:43.847Z,732.15
2016-10-15T04:39:43.834Z,732.13
2016-10-15T04:40:43.815Z,732.13
2016-10-15T04:41:43.807Z,732.21
2016-10-15T04:42:43.787Z,732.2
2016-10-15T04:43:43.775Z,732.18
2016-10-15T04:44:43.768Z,732.19
2016-10-15T04:45:43.748Z,732.03
2016-10-15T04:46:43.736Z,732.19
2016-10-15T04:47:43.729Z,732.15
2016-10-15T04:48:43.715Z,732.22
2016-10-15T04:49:43.702Z,732.23
2016-10-15T04:50:43.889Z,732.24
2016-10-15T04:51:43.676Z,732.21
2016-10-15T04:52:43.655Z,732.27
2016-10-15T04:53:43.643Z,732.28
2016-10-15T04:54:43.629Z,732.28
2016-10-15T04:55:43.622Z,732.27
2016-10-15T04:56:43.602Z,732.23
2016-10-15T04:57:43.589Z,732.25
2016-10-15T04:58:43.583Z,732.31
2016-10-15T04:59:43.569Z,732.33
2016-10-15T05:00:43.556Z,732.33
2016-10-15T05:01:43.535Z,732.31
2016-10-15T05:02:43.522Z,732.35
2016-10-15T05:03:43.516Z,732.36
2016-10-15T05:04:43.495Z,732.39
2016-10-15T05:05:43.490Z,732.36
2016-10-15T05:06:43.476Z,732.37
2016-10-15T05:07:43.457Z,732.32
2016-10-15T05:08:43.450Z,732.31
2016-10-15T05:09:43.438Z,732.32
2016-10-15T05:10:43.424Z,732.29
2016-10-15T05:11:43.411Z,732.36
2016-10-15T05:12:43.391Z,732.38
2016-10-15T05:13:43.385Z,732.38
2016-10-15T05:14:43.373Z,732.43
2016-10-15T05:15:43.353Z,732.38
2016-10-15T05:16:43.340Z,732.37
2016-10-15T05:17:43.325Z,732.38
2016-10-15T05:18:43.313Z,732.39
2016-10-15T05:19:43.306Z,732.36
2016-10-15T05:20:43.287Z,732.41
2016-10-15T05:21:43.279Z,732.44
2016-10-15T05:22:43.267Z,732.42
2016-10-15T05:23:43.254Z,732.41
2016-10-15T05:24:43.232Z,732.49
2016-10-15T05:25:43.220Z,732.48
2016-10-15T05:26:43.208Z,732.51
2016-10-15T05:27:43.195Z,732.45
2016-10-15T05:28:43.188Z,732.44
2016-10-15T05:29:43.169Z,732.4
2016-10-15T05:30:43.157Z,732.46
2016-10-15T05:31:43.143Z,732.48
2016-10-15T05:32:43.130Z,732.48
2016-10-15T05:33:43.118Z,732.48
2016-10-15T05:34:43.112Z,732.48
2016-10-15T05:35:43.098Z,732.5
2016-10-15T05:36:43.086Z,732.52
2016-10-15T05:37:43.073Z,732.53
2016-10-15T05:38:43.061Z,732.48
2016-10-15T05:39:43.047Z,732.49
2016-10-15T05:40:43.034Z,732.52
2016-10-15T05:41:43.016Z,732.52
2016-10-15T05:42:43.010Z,732.54
2016-10-15T05:43:42.996Z,732.51
2016-10-15T05:44:42.984Z,732.52
2016-10-15T05:45:42.965Z,732.5
2016-10-15T05:46:42.958Z,732.53
2016-10-15T05:47:42.945Z,732.51
2016-10-15T05:48:42.925Z,732.55
2016-10-15T05:49:42.920Z,732.56
2016-10-15T05:50:42.906Z,732.58
2016-10-15T05:51:42.893Z,732.58
2016-10-15T05:52:42.881Z,732.58
2016-10-15T05:53:42.861Z,732.56
2016-10-15T05:54:42.854Z,732.61
2016-10-15T05:55:42.842Z,732.62
2016-10-15T05:56:42.829Z,732.65
2016-10-15T05:57:42.810Z,732.64
2016-10-15T05:58:42.804Z,732.64
2016-10-15T05:59:42.785Z,732.59
2016-10-15T06:00:42.773Z,732.64
2016-10-15T06:01:42.766Z,732.63
2016-10-15T06:02:42.753Z,732.66
2016-10-15T06:03:42.735Z,732.67
2016-10-15T06:04:42.729Z,732.68
2016-10-15T06:05:42.708Z,732.7
2016-10-15T06:06:42.703Z,732.68
2016-10-15T06:07:42.685Z,732.74
2016-10-15T06:08:42.678Z,732.67
2016-10-15T06:09:42.660Z,732.7
2016-10-15T06:10:42.647Z,732.68
2016-10-15T06:11:42.643Z,732.72
2016-10-15T06:12:42.630Z,732.73
2016-10-15T06:13:42.618Z,732.71
2016-10-15T06:14:42.606Z,732.73
2016-10-15T06:15:42.588Z,732.77
2016-10-15T06:16:42.574Z,732.83
2016-10-15T06:17:42.569Z,732.84
2016-10-15T06:18:42.550Z,732.86
2016-10-15T06:19:42.538Z,732.88
2016-10-15T06:20:42.532Z,732.9
2016-10-15T06:21:42.513Z,732.93
2016-10-15T06:22:42.501Z,732.91
2016-10-15T06:23:42.495Z,732.94
2016-10-15T06:24:42.476Z,732.93
2016-10-15T06:25:42.471Z,732.91
2016-10-15T06:26:42.460Z,732.96
2016-10-15T06:27:42.440Z,732.98
2016-10-15T06:28:42.434Z,733.01
2016-10-15T06:29:42.416Z,732.99
2016-10-15T06:30:42.409Z,733.03
2016-10-15T06:31:42.390Z,733.05
2016-10-15T06:32:42.385Z,733.03
2016-10-15T06:33:42.367Z,733.02
2016-10-15T06:34:42.353Z,733.03
2016-10-15T06:35:42.349Z,733.03
2016-10-15T06:36:42.337Z,733.04
2016-10-15T06:37:42.319Z,733.06
2016-10-15T06:38:42.306Z,733.1
2016-10-15T06:39:42.294Z,733.08
2016-10-15T06:40:42.283Z,733.08
2016-10-15T06:41:42.270Z,733.13
2016-10-15T06:42:42.265Z,733.16
2016-10-15T06:43:42.246Z,733.19
2016-10-15T06:44:42.236Z,733.16
2016-10-15T06:45:42.222Z,733.19
2016-10-15T06:46:42.219Z,733.2
2016-10-15T06:47:42.208Z,733.26
2016-10-15T06:48:42.197Z,733.26
2016-10-15T06:49:42.179Z,733.25
2016-10-15T06:50:42.176Z,733.28
2016-10-15T06:51:42.158Z,733.3
2016-10-15T06:52:42.154Z,733.29
2016-10-15T06:53:42.144Z,733.27
2016-10-15T06:54:42.126Z,733.28
2016-10-15T06:55:42.123Z,733.33
2016-10-15T06:56:42.112Z,733.37
2016-10-15T06:57:42.096Z,733.34
2016-10-15T06:58:42.092Z,733.32
2016-10-15T06:59:42.073Z,733.35
2016-10-15T07:00:42.063Z,733.43
2016-10-15T07:01:42.053Z,733.47
2016-10-15T07:02:42.050Z,733.46
2016-10-15T07:03:42.032Z,733.42
2016-10-15T07:04:42.023Z,733.4
2016-10-15T07:05:42.020Z,733.47
2016-10-15T07:06:42.003Z,733.4
2016-10-15T07:07:41.992Z,733.44
2016-10-15T07:08:41.990Z,733.42
2016-10-15T07:09:41.981Z,733.5
2016-10-15T07:10:41.963Z,733.52
2016-10-15T07:11:41.955Z,733.51
2016-10-15T07:12:41.944Z,733.51
2016-10-15T07:13:41.942Z,733.45
2016-10-15T07:14:41.926Z,733.48
2016-10-15T07:15:41.922Z,733.51
2016-10-15T07:16:41.907Z,733.5
2016-10-15T07:17:41.904Z,733.48
2016-10-15T07:18:41.893Z,733.51
2016-10-15T07:19:41.884Z,733.49
2016-10-15T07:20:41.868Z,733.52
2016-10-15T07:21:41.864Z,733.57
2016-10-15T07:22:41.854Z,733.64
2016-10-15T07:23:41.845Z,733.59
2016-10-15T07:24:41.827Z,733.63
2016-10-15T07:25:41.823Z,733.66
2016-10-15T07:26:41.813Z,733.68
2016-10-15T07:27:41.796Z,733.69
2016-10-15T07:28:41.786Z,733.71
2016-10-15T07:29:41.782Z,733.73
2016-10-15T07:30:41.772Z,733.72
2016-10-15T07:31:41.762Z,733.75
2016-10-15T07:32:41.744Z,733.78
2016-10-15T07:33:41.734Z,733.75
2016-10-15T07:34:41.724Z,733.76
2016-10-15T07:35:41.713Z,733.69
2016-10-15T07:36:41.702Z,733.69
2016-10-15T07:37:41.693Z,733.68
2016-10-15T07:38:41.683Z,733.82
2016-10-15T07:39:41.679Z,733.82
2016-10-15T07:40:41.668Z,733.86
2016-10-15T07:41:41.652Z,733.94
2016-10-15T07:42:41.649Z,733.92
2016-10-15T07:43:41.638Z,733.91
2016-10-15T07:44:41.621Z,733.95
2016-10-15T07:45:41.613Z,733.96
2016-10-15T07:46:41.610Z,733.99
2016-10-15T07:47:41.600Z,733.95
2016-10-15T07:48:41.584Z,733.99
2016-10-15T07:49:41.576Z,734
2016-10-15T07:50:41.573Z,734
2016-10-15T07:51:41.563Z,734.06
2016-10-15T07:52:41.548Z,733.97
2016-10-15T07:53:41.539Z,734
2016-10-15T07:54:41.537Z,733.96
2016-10-15T07:55:41.528Z,733.96
2016-10-15T07:56:41.520Z,733.95
2016-10-15T07:57:41.511Z,734.01
2016-10-15T07:58:41.502Z,734.03
2016-10-15T07:59:41.487Z,734.04
2016-10-15T08:00:41.485Z,733.99
2016-10-15T08:01:41.469Z,733.98
2016-10-15T08:02:41.461Z,733.93
2016-10-15T08:03:41.458Z,734.03
2016-10-15T08:04:41.443Z,733.98
2016-10-15T08:05:41.440Z,734.02
2016-10-15T08:06:41.426Z,733.99
2016-10-15T08:07:41.424Z,733.94
2016-10-15T08:08:41.415Z,734
2016-10-15T08:09:41.405Z,733.99
2016-10-15T08:10:41.389Z,734
2016-10-15T08:11:41.381Z,734
2016-10-15T08:12:41.379Z,734.01
2016-10-15T08:13:41.362Z,734.02
2016-10-15T08:14:41.353Z,734.02
2016-10-15T08:15:41.345Z,733.99
2016-10-15T08:16:41.335Z,733.98
2016-10-15T08:17:41.326Z,733.99
2016-10-15T08:18:41.318Z,734.01
2016-10-15T08:19:41.308Z,734
2016-10-15T08:20:41.299Z,734.02
2016-10-15T08:21:41.290Z,734.03
2016-10-15T08:22:41.287Z,734.04
2016-10-15T08:23:41.278Z,734.05
2016-10-15T08:24:41.269Z,734.08
2016-10-15T08:25:41.260Z,734.07
2016-10-15T08:26:41.251Z,734.07
2016-10-15T08:27:41.240Z,734.06
2016-10-15T08:28:41.231Z,734.07
2016-10-15T08:29:41.222Z,734.09
2016-10-15T08:30:41.213Z,734.1
2016-10-15T08:31:41.203Z,734.1
2016-10-15T08:32:41.186Z,734.1
2016-10-15T08:33:41.177Z,734.15
2016-10-15T08:34:41.173Z,734.17
2016-10-15T08:35:41.157Z,734.16
2016-10-15T08:36:41.155Z,734.17
2016-10-15T08:37:41.138Z,734.19
2016-10-15T08:38:41.135Z,734.15
2016-10-15T08:39:41.126Z,734.23
2016-10-15T08:40:41.110Z,734.18
2016-10-15T08:41:41.107Z,734.24
2016-10-15T08:42:41.089Z,734.23
2016-10-15T08:43:41.081Z,734.15
2016-10-15T08:44:41.078Z,734.16
2016-10-15T08:45:41.068Z,734.14
2016-10-15T08:46:41.050Z,734.15
2016-10-15T08:47:41.041Z,734.09
2016-10-15T08:48:41.039Z,734.22
2016-10-15T08:49:41.021Z,734.11
2016-10-15T08:50:41.011Z,734.14
2016-10-15T08:51:41.009Z,734.22
2016-10-15T08:52:40.999Z,734.2
2016-10-15T08:53:40.988Z,734.21
2016-10-15T08:54:40.971Z,734.19
2016-10-15T08:55:40.969Z,734.27
2016-10-15T08:56:40.952Z,734.26
2016-10-15T08:57:40.949Z,734.22
2016-10-15T08:58:40.932Z,734.2
2016-10-15T08:59:40.930Z,734.28
2016-10-15T09:00:40.920Z,734.28
2016-10-15T09:01:40.910Z,734.34
2016-10-15T09:02:40.901Z,734.32
2016-10-15T09:03:40.892Z,734.36
2016-10-15T09:04:40.882Z,734.41
2016-10-15T09:05:40.865Z,734.39
2016-10-15T09:06:40.858Z,734.43
2016-10-15T09:07:40.847Z,734.44
2016-10-15T09:08:40.846Z,734.4
2016-10-15T09:09:40.831Z,734.47
2016-10-15T09:10:40.823Z,734.44
2016-10-15T09:11:40.821Z,734.42
2016-10-15T09:12:40.807Z,734.51
2016-10-15T09:13:40.806Z,734.47
2016-10-15T09:14:40.799Z,734.5
2016-10-15T09:15:40.791Z,734.48
2016-10-15T09:16:40.784Z,734.48
2016-10-15T09:17:40.776Z,734.47
2016-10-15T09:18:40.770Z,734.47
2016-10-15T09:19:40.759Z,734.58
2016-10-15T09:20:40.751Z,734.59
2016-10-15T09:21:40.737Z,734.58
2016-10-15T09:22:40.735Z,734.58
2016-10-15T09:23:40.727Z,734.58
2016-10-15T09:24:40.719Z,734.57
2016-10-15T09:25:40.705Z,734.53
2016-10-15T09:26:40.696Z,734.52
2016-10-15T09:27:40.695Z,734.52
2016-10-15T09:28:40.688Z,734.54
2016-10-15T09:29:40.679Z,734.52
2016-10-15T09:30:40.672Z,734.54
2016-10-15T09:31:40.659Z,734.53
2016-10-15T09:32:40.651Z,734.62
2016-10-15T09:33:40.644Z,734.64
2016-10-15T09:34:40.643Z,734.61
2016-10-15T09:35:40.629Z,734.54
2016-10-15T09:36:40.631Z,734.62
2016-10-15T09:37:40.623Z,734.67
2016-10-15T09:38:40.616Z,734.71
2016-10-15T09:39:40.610Z,734.73
2016-10-15T09:40:40.597Z,734.72
2016-10-15T09:41:40.597Z,734.74
2016-10-15T09:42:40.585Z,734.73
2016-10-15T09:43:40.579Z,734.79
2016-10-15T09:44:40.579Z,734.72
2016-10-15T09:45:40.574Z,734.71
2016-10-15T09:46:40.568Z,734.65
2016-10-15T09:47:40.556Z,734.67
2016-10-15T09:48:40.550Z,734.7
2016-10-15T09:49:40.552Z,734.72
2016-10-15T09:50:40.547Z,734.73
2016-10-15T09:51:40.535Z,734.78
2016-10-15T09:52:40.530Z,734.72
2016-10-15T09:53:40.531Z,734.75
2016-10-15T09:54:40.526Z,734.82
2016-10-15T09:55:40.520Z,734.72
2016-10-15T09:56:40.509Z,734.81
2016-10-15T09:57:40.503Z,734.83
2016-10-15T09:58:40.499Z,734.84
2016-10-15T09:59:40.500Z,734.82
2016-10-15T10:00:40.495Z,734.78
2016-10-15T10:01:40.490Z,734.71
2016-10-15T10:02:40.478Z,734.78
2016-10-15T10:03:40.472Z,734.73
2016-10-15T10:04:40.475Z,734.73
2016-10-15T10:05:40.462Z,734.72
2016-10-15T10:06:40.464Z,734.83
2016-10-15T10:07:40.451Z,734.81
2016-10-15T10:08:40.446Z,734.79
2016-10-15T10:09:40.441Z,734.83
2016-10-15T10:10:40.436Z,734.8
2016-10-15T10:11:40.436Z,734.83
2016-10-15T10:12:40.431Z,734.83
2016-10-15T10:13:40.418Z,734.86
2016-10-15T10:14:40.412Z,734.87
2016-10-15T10:15:40.411Z,734.86
2016-10-15T10:16:40.398Z,734.86
2016-10-15T10:17:40.391Z,734.89
2016-10-15T10:18:40.384Z,734.89
2016-10-15T10:19:40.384Z,734.88
2016-10-15T10:20:40.376Z,734.84
2016-10-15T10:21:40.369Z,734.88
2016-10-15T10:22:40.361Z,734.92
2016-10-15T10:23:40.354Z,734.94
2016-10-15T10:24:40.338Z,734.9
2016-10-15T10:25:40.331Z,734.88
2016-10-15T10:26:40.324Z,734.91
2016-10-15T10:27:40.317Z,734.87
2016-10-15T10:28:40.410Z,734.85
2016-10-15T10:29:40.310Z,734.83
2016-10-15T10:30:40.303Z,734.84
2016-10-15T10:31:40.295Z,734.85
2016-10-15T10:32:40.289Z,734.88
2016-10-15T10:33:40.283Z,734.87
2016-10-15T10:34:40.277Z,734.86
2016-10-15T10:35:40.263Z,734.86
2016-10-15T10:36:40.265Z,734.89
2016-10-15T10:37:40.259Z,734.9
2016-10-15T10:38:40.254Z,734.91
2016-10-15T10:39:40.250Z,734.94
2016-10-15T10:40:40.236Z,734.97
2016-10-15T10:41:40.237Z,734.92
2016-10-15T10:42:40.231Z,734.93
2016-10-15T10:43:40.220Z,734.97
2016-10-15T10:44:40.215Z,734.96
2016-10-15T10:45:40.209Z,734.96
2016-10-15T10:46:40.211Z,734.93
2016-10-15T10:47:40.206Z,734.94
2016-10-15T10:48:40.194Z,735.03
2016-10-15T10:49:40.189Z,735
2016-10-15T10:50:40.191Z,734.91
2016-10-15T10:51:40.178Z,734.89
2016-10-15T10:52:40.175Z,734.89
2016-10-15T10:53:40.175Z,734.87
2016-10-15T10:54:40.170Z,734.91
2016-10-15T10:55:40.165Z,734.86
2016-10-15T10:56:40.154Z,734.86
2016-10-15T10:57:40.154Z,734.88
2016-10-15T10:58:40.149Z,734.89
2016-10-15T10:59:40.144Z,734.94
2016-10-15T11:00:40.138Z,734.92
2016-10-15T11:01:40.131Z,734.9
2016-10-15T11:02:40.118Z,734.88
2016-10-15T11:03:40.118Z,734.88
2016-10-15T11:04:40.111Z,734.88
2016-10-15T11:05:40.104Z,734.89
2016-10-15T11:06:40.097Z,734.88
2016-10-15T11:07:40.091Z,734.92
2016-10-15T11:08:40.083Z,734.99
2016-10-15T11:09:40.069Z,734.99
2016-10-15T11:10:40.070Z,735.03
2016-10-15T11:11:40.063Z,735.05
2016-10-15T11:12:40.049Z,735.06
2016-10-15T11:13:40.048Z,735.09
2016-10-15T11:14:40.042Z,735.11
2016-10-15T11:15:40.033Z,735.09
2016-10-15T11:16:40.019Z,735.16
2016-10-15T11:17:40.019Z,735.17
2016-10-15T11:18:40.006Z,735.22
2016-10-15T11:19:39.998Z,735.15
2016-10-15T11:20:40.042Z,735.16
2016-10-15T11:21:39.991Z,735.13
2016-10-15T11:22:39.978Z,735.12
2016-10-15T11:23:39.977Z,734.99
2016-10-15T11:24:39.965Z,735.01
2016-10-15T11:25:39.958Z,735.06
2016-10-15T11:26:39.954Z,735
2016-10-15T11:27:39.944Z,735.05
2016-10-15T11:28:39.945Z,735.06
2016-10-15T11:29:39.931Z,735.03
2016-10-15T11:30:39.924Z,735.07
2016-10-15T11:31:39.924Z,735.02
2016-10-15T11:32:39.918Z,735.07
2016-10-15T11:33:39.911Z,735.13
2016-10-15T11:34:39.904Z,735.16
2016-10-15T11:35:39.892Z,735.19
2016-10-15T11:36:39.884Z,735.2
2016-10-15T11:37:39.884Z,735.15
2016-10-15T11:38:39.877Z,735.14
2016-10-15T11:39:39.871Z,735.17
2016-10-15T11:40:39.865Z,735.22
2016-10-15T11:41:39.858Z,735.22
2016-10-15T11:42:39.851Z,735.21
2016-10-15T11:43:39.845Z,735.25
2016-10-15T11:44:39.838Z,735.16
2016-10-15T11:45:39.825Z,735.17
2016-10-15T11:46:39.827Z,735.12
2016-10-15T11:47:39.815Z,735.15
2016-10-15T11:48:39.814Z,735.15
2016-10-15T11:49:39.800Z,735.09
2016-10-15T11:50:39.801Z,735.07
2016-10-15T11:51:39.795Z,735.06
2016-10-15T11:52:39.787Z,735.08
2016-10-15T11:53:39.780Z,735.04
2016-10-15T11:54:39.766Z,735.05
2016-10-15T11:55:39.759Z,735.1
2016-10-15T11:56:39.751Z,735.22
2016-10-15T11:57:39.750Z,735.09
2016-10-15T11:58:39.743Z,735.09
2016-10-15T11:59:39.735Z,735.05
2016-10-15T12:00:39.721Z,735.06
2016-10-15T12:01:39.719Z,735.1
2016-10-15T12:02:39.712Z,735.09
2016-10-15T12:03:39.703Z,735.07
2016-10-15T12:04:39.696Z,735.08
2016-10-15T12:05:39.681Z,735.07
2016-10-15T12:06:39.679Z,735.04
2016-10-15T12:07:39.664Z,735.08
2016-10-15T12:08:39.663Z,735.09
2016-10-15T12:09:39.655Z,735.15
2016-10-15T12:10:39.640Z,735.12
2016-10-15T12:11:39.631Z,735.08
2016-10-15T12:12:39.723Z,735.11
2016-10-15T12:13:39.613Z,735.1
2016-10-15T12:14:39.604Z,735.11
2016-10-15T12:15:39.595Z,735.06
2016-10-15T12:16:39.593Z,735.09
2016-10-15T12:17:39.582Z,735.11
2016-10-15T12:18:39.573Z,735.1
2016-10-15T12:19:39.556Z,735.11
2016-10-15T12:20:39.547Z,735.08
2016-10-15T12:21:39.535Z,735.13
2016-10-15T12:22:39.532Z,735.17
2016-10-15T12:23:39.516Z,735.13
2016-10-15T12:24:39.505Z,735.11
2016-10-15T12:25:39.495Z,735.15
2016-10-15T12:26:39.485Z,735.12
2016-10-15T12:27:39.481Z,735.14
2016-10-15T12:28:39.465Z,735.18
2016-10-15T12:29:39.455Z,735.2
2016-10-15T12:30:39.452Z,735.1
2016-10-15T12:31:39.436Z,735.1